Time;durP1;ratioP1;P1;durP2;ratioP2;P2;SDS_P1;SDS_P2;PMS_P1;PMS_P2;Temp;Humidity;BMP_temperature;BMP_pressure;BME280_temperature;BME280_humidity;BME280_pressure;Samples;Min_cycle;Max_cycle;Signal;HPM_P1;HPM_P2
2023/01/13 00:01:23;;;;;;;25.90;17.60;;;;;;;-4.24;99.87;100540.53;102672;1292;600268;-73
2023/01/13 00:03:51;;;;;;;36.50;19.40;;;;;;;-4.25;99.99;100544.29;105077;1266;61368;-68
2023/01/13 00:06:20;;;;;;;36.10;16.60;;;;;;;-4.26;99.93;100544.34;105055;1266;63333;-73
2023/01/13 00:08:48;;;;;;;39.90;19.30;;;;;;;-4.29;99.97;100544.12;105071;1271;71493;-71
2023/01/13 00:11:16;;;;;;;41.80;19.50;;;;;;;-4.29;100.00;100545.89;105401;1263;68960;-71
2023/01/13 00:13:44;;;;;;;35.20;21.00;;;;;;;-4.28;100.00;100548.27;105387;1259;74149;-72
2023/01/13 00:16:16;;;;;;;32.60;20.00;;;;;;;-4.29;100.00;100549.39;105271;1256;621725;-71
2023/01/13 00:18:45;;;;;;;30.90;15.90;;;;;;;-4.31;100.00;100546.61;105738;1256;60219;-70
2023/01/13 00:21:20;;;;;;;50.80;21.10;;;;;;;-4.33;100.00;100546.07;105550;1256;74524;-69
2023/01/13 00:23:48;;;;;;;41.80;21.00;;;;;;;-4.33;100.00;100548.17;105758;1256;66917;-70
2023/01/13 00:34:33;;;;;;;35.20;20.40;;;;;;;-4.18;100.00;100543.65;102779;1295;602135;-72
2023/01/13 00:37:00;;;;;;;39.30;19.70;;;;;;;-4.21;100.00;100539.18;104965;1267;59833;-69
2023/01/13 00:39:28;;;;;;;53.90;23.60;;;;;;;-4.23;100.00;100541.51;105027;1266;62786;-70
2023/01/13 00:44:44;;;;;;;51.10;21.80;;;;;;;-4.26;100.00;100538.58;105575;1258;70613;-71
2023/01/13 00:47:11;;;;;;;31.90;17.40;;;;;;;-4.24;100.00;100540.19;105135;1260;597114;-71
2023/01/13 00:49:38;;;;;;;37.50;20.30;;;;;;;-4.25;100.00;100536.96;105755;1255;61698;-68
2023/01/13 00:52:05;;;;;;;35.00;17.50;;;;;;;-4.29;100.00;100537.84;105585;1254;61730;-70
2023/01/13 00:54:32;;;;;;;42.30;21.40;;;;;;;-4.33;100.00;100535.73;105711;1260;74914;-71
2023/01/13 00:56:59;;;;;;;44.40;21.10;;;;;;;-4.31;100.00;100535.23;105943;1254;70521;-73
2023/01/13 00:59:26;;;;;;;36.10;19.70;;;;;;;-4.26;100.00;100542.11;105871;1258;74070;-70
2023/01/13 01:01:53;;;;;;;36.50;16.70;;;;;;;-4.21;100.00;100539.39;106085;1256;59714;-71
2023/01/13 01:04:21;;;;;;;31.60;18.20;;;;;;;-4.13;100.00;100531.85;106014;1251;60026;-69
2023/01/13 01:06:47;;;;;;;37.90;18.20;;;;;;;-4.11;100.00;100528.51;105645;1256;73874;-71
2023/01/13 01:09:14;;;;;;;47.10;20.00;;;;;;;-4.10;100.00;100528.05;106026;1256;69386;-69
2023/01/13 01:11:42;;;;;;;27.60;15.30;;;;;;;-4.08;100.00;100529.86;105638;1256;72975;-69
2023/01/13 01:14:12;;;;;;;37.70;17.70;;;;;;;-4.12;100.00;100523.32;106049;1254;62415;-70
2023/01/13 01:16:40;;;;;;;54.10;18.20;;;;;;;-4.16;100.00;100523.36;105843;1252;63332;-72
2023/01/13 01:19:08;;;;;;;35.00;18.90;;;;;;;-4.20;100.00;100521.41;105534;1254;74602;-69
2023/01/13 01:21:35;;;;;;;36.10;19.40;;;;;;;-4.22;100.00;100518.48;105904;1251;70691;-71
2023/01/13 01:24:03;;;;;;;36.50;16.90;;;;;;;-4.23;100.00;100519.62;105858;1256;74692;-71
2023/01/13 01:26:30;;;;;;;35.60;20.80;;;;;;;-4.24;100.00;100518.14;106063;1251;61778;-72
2023/01/13 01:28:57;;;;;;;37.80;18.50;;;;;;;-4.23;100.00;100515.24;105456;1251;63061;-73
2023/01/13 01:31:26;;;;;;;27.50;13.70;;;;;;;-4.18;100.00;100510.09;106140;1257;76045;-68
2023/01/13 01:33:53;;;;;;;33.60;16.50;;;;;;;-4.12;100.00;100509.35;105668;1254;68507;-67
2023/01/13 01:36:21;;;;;;;28.70;18.20;;;;;;;-4.08;100.00;100503.70;105633;1253;73939;-70
2023/01/13 01:38:49;;;;;;;31.70;17.40;;;;;;;-4.02;100.00;100506.69;105665;1256;59746;-67
2023/01/13 01:41:22;;;;;;;29.70;15.90;;;;;;;-4.00;100.00;100503.52;105799;1254;60642;-71
2023/01/13 01:44:02;;;;;;;49.00;19.40;;;;;;;-4.01;100.00;100506.23;106034;1252;74148;-73
2023/01/13 01:46:39;;;;;;;25.80;14.40;;;;;;;-4.03;100.00;100497.12;103685;1254;1003723;-74
2023/01/13 01:49:36;;;;;;;37.00;17.40;;;;;;;-4.02;100.00;100492.50;105680;1262;75641;-72
2023/01/13 01:52:10;;;;;;;31.20;16.80;;;;;;;-4.02;100.00;100489.65;105743;1254;62539;-72
2023/01/13 01:54:47;;;;;;;35.60;16.50;;;;;;;-4.05;100.00;100489.41;105527;1254;62635;-68
2023/01/13 01:57:20;;;;;;;24.40;14.20;;;;;;;-4.06;100.00;100493.40;105544;1256;72874;-70
2023/01/13 01:59:47;;;;;;;39.20;17.50;;;;;;;-4.09;100.00;100492.39;106158;1254;67536;-70
2023/01/13 02:02:15;;;;;;;22.00;14.60;;;;;;;-4.07;100.00;100491.05;105924;1254;74074;-71
2023/01/13 02:04:49;;;;;;;33.20;17.30;;;;;;;-4.06;100.00;100492.83;105817;1258;62720;-70
2023/01/13 02:07:18;;;;;;;32.60;17.30;;;;;;;-4.08;100.00;100491.13;105888;1259;61404;-68
2023/01/13 02:09:45;;;;;;;23.40;15.50;;;;;;;-4.09;100.00;100491.39;106106;1254;73466;-70
2023/01/13 02:12:31;;;;;;;31.80;16.10;;;;;;;-4.11;100.00;100490.83;105913;1254;69135;-68
2023/01/13 02:15:10;;;;;;;36.90;18.80;;;;;;;-4.10;100.00;100488.67;106028;1254;75263;-67
2023/01/13 02:17:45;;;;;;;21.30;14.50;;;;;;;-4.05;100.00;100487.86;105614;1257;62519;-68
2023/01/13 04:20:55;;;;;;;39.30;20.20;;;;;;;-4.47;100.00;100457.81;102304;1295;601068;-68
2023/01/13 04:23:23;;;;;;;39.40;19.70;;;;;;;-4.48;100.00;100461.06;104954;1274;63290;-68
2023/01/13 04:25:51;;;;;;;34.20;17.60;;;;;;;-4.46;100.00;100456.14;104521;1270;62548;-67
2023/01/13 04:28:18;;;;;;;30.80;14.90;;;;;;;-4.42;100.00;100454.77;104444;1268;71881;-70
2023/01/13 04:30:45;;;;;;;47.30;23.10;;;;;;;-4.35;100.00;100454.36;104486;1274;70377;-66
2023/01/13 04:33:12;;;;;;;33.90;19.60;;;;;;;-4.29;100.00;100457.16;104494;1272;73763;-67
2023/01/13 04:35:39;;;;;;;34.60;17.90;;;;;;;-4.21;100.00;100460.45;104074;1266;572774;-69
2023/01/13 04:38:11;;;;;;;28.80;18.10;;;;;;;-4.09;100.00;100459.37;104648;1269;62701;-66
2023/01/13 04:40:39;;;;;;;22.40;15.30;;;;;;;-3.99;100.00;100460.36;104793;1267;71585;-68
2023/01/13 04:43:07;;;;;;;27.30;18.60;;;;;;;-3.91;100.00;100462.26;104740;1270;68176;-67
2023/01/13 04:45:34;;;;;;;28.10;17.40;;;;;;;-3.86;100.00;100464.08;104609;1266;72350;-69
2023/01/13 04:48:01;;;;;;;28.90;18.00;;;;;;;-3.83;100.00;100467.98;104953;1259;61323;-67
2023/01/13 04:50:28;;;;;;;30.50;20.30;;;;;;;-3.84;100.00;100464.41;105049;1263;63099;-69
2023/01/13 04:52:55;;;;;;;30.90;18.20;;;;;;;-3.81;100.00;100463.60;104941;1264;72477;-69
2023/01/13 04:55:23;;;;;;;26.70;19.10;;;;;;;-3.77;100.00;100465.54;105001;1260;69594;-67
2023/01/13 04:57:50;;;;;;;30.60;17.00;;;;;;;-3.78;100.00;100465.61;105158;1261;72829;-70
2023/01/13 05:00:18;;;;;;;29.10;18.40;;;;;;;-3.75;100.00;100461.34;105044;1260;60264;-68
2023/01/13 05:02:50;;;;;;;37.20;19.10;;;;;;;-3.75;100.00;100460.31;105013;1266;62175;-67
2023/01/13 05:05:17;;;;;;;36.50;19.40;;;;;;;-3.72;100.00;100456.65;105144;1263;73612;-68
2023/01/13 05:07:44;;;;;;;36.80;19.40;;;;;;;-3.71;100.00;100458.85;105023;1264;68601;-67
2023/01/13 05:10:12;;;;;;;31.00;17.80;;;;;;;-3.74;100.00;100464.02;105141;1263;75087;-68
2023/01/13 05:18:11;;;;;;;40.50;22.20;;;;;;;-3.81;100.00;100471.66;105070;1265;74059;-70
2023/01/13 05:20:39;;;;;;;33.10;16.50;;;;;;;-3.79;100.00;100474.98;104871;1267;70399;-68
2023/01/13 05:25:51;;;;;;;39.50;23.60;;;;;;;-3.77;100.00;100479.02;105017;1260;61227;-69
2023/01/13 05:28:18;;;;;;;30.40;16.80;;;;;;;-3.80;100.00;100477.71;104929;1261;62163;-67
2023/01/13 05:30:47;;;;;;;28.40;19.40;;;;;;;-3.84;100.00;100478.41;104981;1260;75522;-68
2023/01/13 05:33:17;;;;;;;32.70;20.00;;;;;;;-3.82;100.00;100475.98;105097;1264;68911;-68
2023/01/13 05:35:45;;;;;;;32.20;16.30;;;;;;;-3.80;100.00;100475.95;104964;1266;75142;-68
2023/01/13 05:38:12;;;;;;;40.50;20.80;;;;;;;-3.81;100.00;100471.49;105169;1260;60655;-70
2023/01/13 05:43:26;;;;;;;30.10;17.60;;;;;;;-3.75;100.00;100472.90;104971;1266;75163;-68
2023/01/13 05:46:00;;;;;;;27.90;19.60;;;;;;;-3.75;100.00;100469.72;105088;1260;70748;-67
2023/01/13 05:48:29;;;;;;;31.70;19.20;;;;;;;-3.76;100.00;100468.45;105104;1261;75478;-67
2023/01/13 05:50:56;;;;;;;42.80;22.40;;;;;;;-3.81;100.00;100469.96;105156;1260;62656;-68
2023/01/13 05:53:23;;;;;;;38.00;19.70;;;;;;;-3.84;100.00;100472.98;104996;1259;62285;-68
2023/01/13 05:55:51;;;;;;;30.10;18.80;;;;;;;-3.86;100.00;100476.55;105115;1266;74117;-67
2023/01/13 05:58:19;;;;;;;27.50;17.50;;;;;;;-3.84;100.00;100474.39;105076;1261;68327;-66
2023/01/13 06:00:46;;;;;;;29.10;18.70;;;;;;;-3.79;100.00;100480.64;104916;1264;73131;-68
2023/01/13 08:14:06;;;;;;;64.30;33.50;;;;;;;-3.73;100.00;100512.31;102264;1298;600202;-70
2023/01/13 08:16:33;;;;;;;44.80;24.10;;;;;;;-3.74;100.00;100512.53;104715;1274;62683;-72
2023/01/13 08:19:00;;;;;;;29.90;14.40;;;;;;;-3.73;100.00;100512.60;104689;1270;60955;-70
2023/01/13 08:21:27;;;;;;;44.60;23.70;;;;;;;-3.70;100.00;100507.48;104806;1269;73809;-71
2023/01/13 08:23:54;;;;;;;41.00;25.90;;;;;;;-3.67;100.00;100503.67;104709;1275;68423;-70
2023/01/13 08:26:21;;;;;;;36.30;24.90;;;;;;;-3.61;100.00;100497.52;104836;1276;73594;-70
2023/01/13 08:28:48;;;;;;;39.80;22.30;;;;;;;-3.58;100.00;100495.83;104441;1269;628771;-71
2023/01/13 08:31:15;;;;;;;50.90;23.50;;;;;;;-3.56;100.00;100492.45;104875;1272;60222;-71
2023/01/13 08:33:43;;;;;;;42.50;24.60;;;;;;;-3.48;100.00;100486.85;104815;1273;74942;-69
2023/01/13 08:36:11;;;;;;;35.40;20.50;;;;;;;-3.43;100.00;100479.73;105158;1265;68467;-70
2023/01/13 08:38:40;;;;;;;35.20;22.60;;;;;;;-3.39;100.00;100471.11;105189;1270;74759;-70
2023/01/13 08:41:11;;;;;;;33.20;21.10;;;;;;;-3.31;100.00;100473.23;105387;1265;62076;-70
2023/01/13 08:43:38;;;;;;;42.00;23.00;;;;;;;-3.28;100.00;100473.81;105417;1264;62121;-70
2023/01/13 08:46:05;;;;;;;40.40;24.90;;;;;;;-3.27;100.00;100473.67;105225;1267;73508;-69
2023/01/13 08:48:32;;;;;;;40.30;23.00;;;;;;;-3.21;100.00;100477.55;105142;1260;67339;-69
2023/01/13 08:51:07;;;;;;;35.80;21.10;;;;;;;-3.17;100.00;100480.48;105188;1267;72096;-72
2023/01/13 08:53:34;;;;;;;36.60;22.20;;;;;;;-3.15;100.00;100487.31;105362;1261;62552;-70
2023/01/13 08:56:03;;;;;;;32.30;19.40;;;;;;;-3.17;100.00;100489.94;105274;1265;62655;-69
2023/01/13 08:58:30;;;;;;;38.00;21.60;;;;;;;-3.20;100.00;100483.20;105222;1268;75719;-70
2023/01/13 09:01:03;;;;;;;35.70;23.40;;;;;;;-3.20;100.00;100478.83;105305;1261;67793;-69
2023/01/13 09:03:31;;;;;;;48.10;26.10;;;;;;;-3.19;100.00;100476.83;105372;1267;73417;-70
2023/01/13 09:05:58;;;;;;;34.60;20.90;;;;;;;-3.20;100.00;100476.05;105293;1265;60531;-69
2023/01/13 09:08:25;;;;;;;28.40;17.20;;;;;;;-3.22;100.00;100478.71;105206;1264;62924;-70
2023/01/13 09:10:52;;;;;;;40.40;19.90;;;;;;;-3.22;100.00;100474.64;105310;1261;75422;-68
2023/01/13 09:13:20;;;;;;;35.70;21.10;;;;;;;-3.22;100.00;100468.13;105261;1265;69220;-71
2023/01/13 09:15:47;;;;;;;36.90;20.10;;;;;;;-3.19;100.00;100468.72;105134;1267;73633;-70
2023/01/13 09:18:14;;;;;;;35.20;21.90;;;;;;;-3.15;100.00;100466.27;105396;1266;59754;-72
2023/01/13 09:20:41;;;;;;;35.50;20.30;;;;;;;-3.10;100.00;100471.52;105404;1260;59794;-71
2023/01/13 09:23:08;;;;;;;35.70;23.20;;;;;;;-3.13;100.00;100468.30;104868;1261;74311;-71
2023/01/13 09:25:36;;;;;;;36.00;22.20;;;;;;;-3.14;100.00;100466.33;105330;1266;68951;-72
2023/01/13 09:28:04;;;;;;;39.50;18.30;;;;;;;-3.13;100.00;100462.89;105226;1266;75389;-70
2023/01/13 09:30:31;;;;;;;28.00;18.80;;;;;;;-3.07;100.00;100463.35;105375;1269;60634;-70
2023/01/13 09:35:44;;;;;;;34.20;19.30;;;;;;;-3.06;100.00;100470.30;105352;1267;72698;-70
2023/01/13 09:38:11;;;;;;;34.30;19.80;;;;;;;-3.12;100.00;100466.45;105411;1261;68699;-70
2023/01/13 09:40:38;;;;;;;32.40;20.80;;;;;;;-3.10;100.00;100465.98;104985;1265;74970;-70
2023/01/13 09:49:02;;;;;;;46.30;23.00;;;;;;;-3.08;100.00;100461.55;105081;1264;75487;-71
2023/01/13 09:51:38;;;;;;;33.40;20.60;;;;;;;-3.07;100.00;100462.04;104989;1264;66507;-69
2023/01/13 09:54:11;;;;;;;27.10;14.20;;;;;;;-3.07;100.00;100459.67;104993;1265;74391;-72
2023/01/13 09:56:37;;;;;;;32.70;20.40;;;;;;;-3.04;100.00;100453.99;105439;1271;60304;-69
2023/01/13 14:14:16;;;;;;;35.40;21.90;;;;;;;-2.80;100.00;100420.81;102159;1295;600076;-70
2023/01/13 14:16:43;;;;;;;39.20;22.90;;;;;;;-2.81;100.00;100418.43;104313;1275;62918;-73
2023/01/13 14:19:33;;;;;;;32.10;20.90;;;;;;;-2.78;100.00;100421.45;104331;1268;60256;-74
2023/01/13 14:22:01;;;;;;;32.70;22.80;;;;;;;-2.73;100.00;100415.02;104742;1267;73842;-72
2023/01/13 14:24:29;;;;;;;28.00;18.90;;;;;;;-2.66;100.00;100416.84;104800;1276;71032;-74
2023/01/13 14:27:18;;;;;;;27.80;21.90;;;;;;;-2.59;100.00;100413.23;104398;1269;977417;-71
2023/01/13 14:29:45;;;;;;;41.30;25.10;;;;;;;-2.49;100.00;100408.67;105354;1260;61530;-71
2023/01/13 14:32:17;;;;;;;33.20;24.70;;;;;;;-2.38;100.00;100402.56;105346;1260;63003;-70
2023/01/13 14:34:44;;;;;;;36.40;23.80;;;;;;;-2.32;100.00;100400.32;105695;1257;71720;-74
2023/01/13 14:37:27;;;;;;;32.20;20.50;;;;;;;-2.27;99.98;100399.31;105782;1263;70194;-72
2023/01/13 14:39:54;;;;;;;41.90;26.90;;;;;;;-2.22;99.88;100400.19;105810;1260;73133;-70
2023/01/13 14:42:21;;;;;;;40.10;24.60;;;;;;;-2.16;99.72;100401.39;105594;1258;63888;-70
2023/01/13 14:44:49;;;;;;;35.00;24.70;;;;;;;-2.13;99.20;100395.46;105592;1257;60433;-71
2023/01/13 14:47:23;;;;;;;29.90;22.10;;;;;;;-2.11;98.49;100396.52;105756;1254;74147;-70
2023/01/13 14:50:04;;;;;;;34.90;23.50;;;;;;;-2.14;98.26;100396.96;105729;1254;70618;-71
2023/01/13 14:52:36;;;;;;;37.00;25.20;;;;;;;-2.13;98.00;100402.35;105744;1263;71480;-69
2023/01/13 14:55:07;;;;;;;37.40;26.70;;;;;;;-2.16;97.57;100407.19;105473;1258;60883;-71
2023/01/13 14:57:35;;;;;;;39.30;25.40;;;;;;;-2.20;97.69;100405.50;105739;1255;62155;-70
2023/01/13 15:00:14;;;;;;;38.50;23.70;;;;;;;-2.19;97.76;100405.93;105597;1263;74251;-70
2023/01/13 15:02:45;;;;;;;28.00;21.30;;;;;;;-2.15;97.79;100400.77;105694;1260;67328;-74
2023/01/13 15:05:18;;;;;;;28.00;18.90;;;;;;;-2.14;97.42;100397.68;105676;1260;73363;-72
2023/01/13 15:08:01;;;;;;;28.20;19.70;;;;;;;-2.16;96.44;100404.39;105864;1260;60046;-71
2023/01/13 15:10:32;;;;;;;;;;;;;;;-2.22;95.93;100405.29;105800;1262;59990;-70
2023/01/13 15:13:01;;;;;;;35.90;21.60;;;;;;;-2.24;96.04;100398.67;105742;1259;73631;-73
2023/01/13 15:15:32;;;;;;;32.90;22.10;;;;;;;-2.22;96.24;100395.34;105703;1256;69055;-71
2023/01/13 15:18:00;;;;;;;27.80;20.30;;;;;;;-2.19;96.07;100394.54;105761;1260;73258;-70
2023/01/13 15:20:27;;;;;;;32.70;21.40;;;;;;;-2.13;96.16;100395.72;105663;1263;60445;-70
2023/01/13 15:22:56;;;;;;;31.10;20.80;;;;;;;-2.09;96.17;100395.95;105758;1262;60271;-68
2023/01/13 15:25:23;;;;;;;31.00;21.00;;;;;;;-2.08;95.61;100397.94;105622;1257;75450;-73
2023/01/13 15:27:51;;;;;;;33.20;22.50;;;;;;;-2.10;95.35;100396.58;105607;1262;68046;-75
2023/01/13 15:30:19;;;;;;;35.40;22.10;;;;;;;-2.11;95.23;100395.64;105695;1263;73932;-72
2023/01/13 15:32:46;;;;;;;27.80;19.50;;;;;;;-2.09;95.20;100396.89;105584;1263;61300;-74
2023/01/13 15:35:17;;;;;;;39.10;23.20;;;;;;;-2.08;94.92;100394.84;105649;1258;61273;-75
2023/01/13 15:37:44;;;;;;;32.50;20.90;;;;;;;-2.08;94.72;100398.40;105565;1258;73334;-72
2023/01/13 15:40:20;;;;;;;27.60;21.20;;;;;;;-2.13;94.79;100397.37;105565;1262;70491;-71
2023/01/13 15:48:20;;;;;;;35.80;15.90;;;;;;;-2.33;94.43;100404.45;105208;1258;61035;-70
2023/01/13 15:50:47;;;;;;;31.10;20.20;;;;;;;-2.33;94.29;100404.67;105782;1260;73605;-74
2023/01/13 15:53:14;;;;;;;35.10;21.50;;;;;;;-2.32;94.49;100406.01;105267;1260;68832;-72
2023/01/13 15:55:42;;;;;;;29.30;21.70;;;;;;;-2.34;94.56;100407.20;105820;1255;75288;-76
2023/01/13 15:58:11;;;;;;;30.50;19.60;;;;;;;-2.38;94.53;100401.98;105666;1263;59653;-69
2023/01/13 16:00:37;;;;;;;27.20;20.00;;;;;;;-2.40;95.00;100401.70;105854;1260;62634;-68
2023/01/13 16:03:04;;;;;;;32.40;22.10;;;;;;;-2.38;94.88;100407.40;105255;1270;73767;-69
2023/01/13 16:05:31;;;;;;;33.50;20.90;;;;;;;-2.38;94.73;100404.77;105788;1257;68209;-77
2023/01/13 16:08:00;;;;;;;33.70;20.90;;;;;;;-2.41;95.11;100408.43;105585;1257;73542;-70
2023/01/13 16:10:27;;;;;;;31.90;20.40;;;;;;;-2.41;95.37;100403.86;105803;1260;61176;-70
2023/01/13 16:12:57;;;;;;;28.40;20.70;;;;;;;-2.43;95.25;100402.11;105164;1257;62227;-69
2023/01/13 16:15:24;;;;;;;36.30;22.30;;;;;;;-2.45;95.35;100395.11;105386;1260;73177;-68
2023/01/13 16:17:56;;;;;;;27.20;20.00;;;;;;;-2.45;95.38;100395.83;105335;1257;68502;-66
2023/01/13 16:20:23;;;;;;;49.30;29.10;;;;;;;-2.47;95.48;100396.93;105368;1260;73069;-67
2023/01/13 16:22:50;;;;;;;25.40;18.40;;;;;;;-2.45;95.71;100392.34;105279;1263;59672;-66
2023/01/13 16:25:22;;;;;;;37.90;21.90;;;;;;;-2.51;95.04;100393.08;105329;1260;62751;-70
2023/01/13 16:27:49;;;;;;;25.30;17.50;;;;;;;-2.56;95.21;100389.88;105572;1260;74490;-69
2023/01/13 16:30:21;;;;;;;22.90;17.40;;;;;;;-2.55;95.13;100386.55;105603;1263;68312;-72
2023/01/13 16:32:50;;;;;;;;;;;;;;;-2.55;95.29;100389.78;105506;1262;73180;-80
2023/01/13 16:35:17;;;;;;;21.20;14.40;;;;;;;-2.56;95.52;100397.13;105600;1263;61369;-72
2023/01/13 16:37:47;;;;;;;26.10;17.70;;;;;;;-2.60;95.68;100397.33;105585;1264;62017;-71
2023/01/13 16:40:17;;;;;;;33.30;22.20;;;;;;;-2.65;95.88;100394.44;105683;1260;74668;-71
2023/01/13 16:42:44;;;;;;;31.90;19.80;;;;;;;-2.69;96.39;100396.90;105654;1257;69795;-73
2023/01/13 16:45:12;;;;;;;24.50;16.70;;;;;;;-2.69;96.44;100401.38;105468;1257;71803;-73
2023/01/13 16:47:41;;;;;;;32.70;18.70;;;;;;;-2.68;96.80;100394.58;105512;1263;62418;-69
2023/01/13 16:50:16;;;;;;;30.00;20.10;;;;;;;-2.65;96.76;100390.03;105804;1262;62184;-71
2023/01/13 16:52:46;;;;;;;30.50;23.30;;;;;;;-2.61;96.60;100392.86;104143;1255;1003505;-70
2023/01/13 16:55:13;;;;;;;38.60;21.70;;;;;;;-2.62;96.89;100384.86;105347;1257;68134;-69
2023/01/13 16:57:40;;;;;;;27.50;17.90;;;;;;;-2.67;96.60;100383.59;105316;1262;71892;-69
2023/01/13 17:00:10;;;;;;;40.80;27.30;;;;;;;-2.73;96.98;100384.80;105286;1260;60604;-73
2023/01/13 17:02:37;;;;;;;30.40;17.80;;;;;;;-2.72;97.39;100384.95;105704;1260;61831;-75
2023/01/13 17:05:05;;;;;;;27.60;20.60;;;;;;;-2.77;98.09;100387.72;104903;1263;1003048;-76
2023/01/13 17:07:32;;;;;;;26.20;16.30;;;;;;;-2.83;98.78;100390.38;105666;1257;68496;-75
2023/01/13 17:09:59;;;;;;;33.00;20.60;;;;;;;-2.86;99.12;100393.19;105586;1261;73247;-70
2023/01/13 17:12:26;;;;;;;31.90;18.80;;;;;;;-2.84;99.21;100392.95;105751;1257;61561;-68
2023/01/13 17:14:53;;;;;;;32.30;19.20;;;;;;;-2.76;99.69;100392.20;105144;1255;60624;-68
2023/01/13 17:17:21;;;;;;;31.60;22.40;;;;;;;-2.73;99.63;100390.98;105033;1260;75391;-66
2023/01/13 17:19:49;;;;;;;27.60;19.90;;;;;;;-2.67;99.74;100391.52;105281;1261;70390;-68
2023/01/13 17:22:15;;;;;;;41.30;26.60;;;;;;;-2.59;99.76;100390.59;105064;1262;75227;-68
2023/01/13 17:24:44;;;;;;;38.30;26.30;;;;;;;-2.60;99.59;100389.09;105245;1264;62900;-68
2023/01/13 17:27:17;;;;;;;45.50;24.30;;;;;;;-2.62;99.38;100387.52;105013;1264;59972;-75
2023/01/13 17:29:44;;;;;;;29.20;20.90;;;;;;;-2.62;99.34;100382.77;105754;1262;73556;-73
2023/01/13 17:32:16;;;;;;;41.50;25.40;;;;;;;-2.61;99.49;100382.34;105774;1258;69050;-70
2023/01/13 17:34:43;;;;;;;34.10;24.20;;;;;;;-2.65;99.89;100387.73;105502;1262;73620;-70
2023/01/13 17:37:13;;;;;;;38.40;25.60;;;;;;;-2.69;99.49;100386.95;105584;1263;60665;-71
2023/01/13 17:39:42;;;;;;;31.70;22.30;;;;;;;-2.71;99.89;100390.62;105610;1262;59889;-70
2023/01/13 17:42:10;;;;;;;31.50;21.70;;;;;;;-2.69;99.99;100391.15;105714;1258;73257;-71
2023/01/13 22:12:12;;;;;;;68.60;35.70;;;;;;;-3.29;100.00;100381.48;102812;1295;641871;-74
2023/01/13 22:14:40;;;;;;;50.40;31.80;;;;;;;-3.30;100.00;100383.73;104959;1272;63917;-69
2023/01/13 22:17:08;;;;;;;51.90;28.80;;;;;;;-3.28;100.00;100382.31;104283;1272;60760;-67
2023/01/13 22:19:37;;;;;;;49.00;32.90;;;;;;;-3.24;100.00;100382.80;104611;1273;73010;-70
2023/01/13 22:22:06;;;;;;;47.10;23.90;;;;;;;-3.18;100.00;100381.79;104665;1277;68648;-70
2023/01/13 22:24:33;;;;;;;47.70;31.10;;;;;;;-3.07;100.00;100372.91;104372;1269;617902;-67
2023/01/13 22:27:00;;;;;;;44.10;29.00;;;;;;;-2.98;100.00;100359.94;104788;1269;60660;-70
2023/01/13 22:29:28;;;;;;;47.90;29.30;;;;;;;-2.89;100.00;100375.77;105060;1269;61634;-71
2023/01/13 22:31:54;;;;;;;49.80;30.30;;;;;;;-2.85;100.00;100375.70;104927;1269;71071;-71
2023/01/13 22:34:21;;;;;;;41.60;26.70;;;;;;;-2.84;100.00;100388.10;105570;1259;68714;-69
2023/01/13 22:36:49;;;;;;;43.30;29.20;;;;;;;-2.82;100.00;100381.54;105338;1260;73580;-75
2023/01/13 22:39:15;;;;;;;37.20;27.10;;;;;;;-2.81;100.00;100382.48;105672;1260;59706;-73
2023/01/13 22:41:44;;;;;;;42.60;25.30;;;;;;;-2.81;100.00;100379.48;105592;1260;59733;-74
2023/01/13 22:44:13;;;;;;;38.50;24.20;;;;;;;-2.81;100.00;100373.66;105677;1259;74628;-69
2023/01/13 22:46:40;;;;;;;42.60;27.70;;;;;;;-2.76;100.00;100374.05;105135;1265;68419;-71
2023/01/13 22:49:06;;;;;;;38.80;24.50;;;;;;;-2.72;100.00;100370.57;105575;1260;72085;-71
2023/01/13 22:51:34;;;;;;;37.50;25.20;;;;;;;-2.68;100.00;100372.05;105614;1260;60704;-70
2023/01/13 22:54:00;;;;;;;35.80;23.00;;;;;;;-2.66;100.00;100373.11;105617;1259;60665;-71
2023/01/13 22:56:27;;;;;;;38.80;27.30;;;;;;;-2.62;99.80;100373.66;105404;1264;72928;-72
2023/01/13 22:58:59;;;;;;;42.20;26.70;;;;;;;-2.61;99.63;100370.23;105290;1265;68880;-73
2023/01/13 23:01:27;;;;;;;41.80;27.00;;;;;;;-2.64;99.27;100361.00;105555;1259;73016;-74
2023/01/13 23:03:56;;;;;;;37.40;26.50;;;;;;;-2.64;99.30;100360.69;105418;1260;60632;-71
2023/01/13 23:06:24;;;;;;;45.00;29.50;;;;;;;-2.65;99.02;100360.55;105358;1260;59578;-70
2023/01/13 23:08:51;;;;;;;37.40;25.20;;;;;;;-2.64;98.93;100364.54;105650;1260;71611;-71
2023/01/13 23:11:19;;;;;;;40.10;26.30;;;;;;;-2.66;98.53;100360.69;105564;1262;67813;-69
2023/01/13 23:13:45;;;;;;;45.50;27.20;;;;;;;-2.71;98.73;100362.02;105594;1260;72703;-71
2023/01/13 23:16:17;;;;;;;44.10;28.60;;;;;;;-2.70;98.92;100354.43;105423;1259;60345;-69
2023/01/13 23:18:46;;;;;;;45.30;29.60;;;;;;;-2.74;98.57;100348.28;105240;1259;61730;-69
2023/01/13 23:21:22;;;;;;;43.60;25.70;;;;;;;-2.75;98.76;100344.21;105687;1260;73915;-71
2023/01/13 23:23:49;;;;;;;44.20;27.80;;;;;;;-2.77;99.08;100344.58;105310;1262;68775;-69
2023/01/13 23:26:16;;;;;;;41.80;29.20;;;;;;;-2.78;99.26;100345.54;105168;1263;71169;-68
2023/01/13 23:28:43;;;;;;;39.30;27.80;;;;;;;-2.76;99.43;100342.66;105316;1260;62858;-67
2023/01/13 23:31:16;;;;;;;50.70;27.70;;;;;;;-2.73;99.27;100347.36;105317;1259;60965;-71
2023/01/13 23:33:43;;;;;;;42.20;31.00;;;;;;;-2.72;99.29;100348.23;105304;1262;71732;-70
2023/01/13 23:36:16;;;;;;;41.80;26.30;;;;;;;-2.69;99.30;100347.97;105385;1260;68896;-69
2023/01/13 23:38:43;;;;;;;41.10;25.80;;;;;;;-2.73;99.08;100342.02;105277;1260;74165;-69
2023/01/13 23:41:11;;;;;;;47.30;25.50;;;;;;;-2.76;99.67;100346.90;105243;1260;61562;-68
2023/01/13 23:43:38;;;;;;;39.30;25.60;;;;;;;-2.80;99.73;100348.32;105194;1258;62171;-68
2023/01/13 23:46:10;;;;;;;57.90;29.40;;;;;;;-2.79;99.77;100344.04;104980;1260;73303;-69
2023/01/13 23:48:37;;;;;;;47.70;29.10;;;;;;;-2.79;99.84;100341.55;105186;1263;68270;-67
2023/01/13 23:51:06;;;;;;;50.00;28.90;;;;;;;-2.75;99.84;100342.45;105081;1260;71369;-69
2023/01/13 23:53:36;;;;;;;48.20;26.80;;;;;;;-2.71;100.00;100337.61;105156;1265;59688;-69
2023/01/13 23:56:09;;;;;;;48.20;29.80;;;;;;;-2.71;99.88;100341.16;105595;1260;61747;-70
2023/01/13 23:58:36;;;;;;;41.50;25.50;;;;;;;-2.72;99.94;100338.83;105227;1262;72523;-69
